sensor_id;sensor_type;location;lat;lon;timestamp;P1;durP1;ratioP1;P2;durP2;ratioP2
38940;SDS011;43236;47.208;7.518;2022-10-26T00:01:55;31.88;;;14.52;;
38940;SDS011;43236;47.208;7.518;2022-10-26T00:04:43;29.20;;;13.68;;
38940;SDS011;43236;47.208;7.518;2022-10-26T00:07:30;38.47;;;17.17;;
38940;SDS011;43236;47.208;7.518;2022-10-26T00:10:17;38.00;;;16.83;;
38940;SDS011;43236;47.208;7.518;2022-10-26T00:13:07;38.08;;;16.23;;
38940;SDS011;43236;47.208;7.518;2022-10-26T00:15:57;35.50;;;17.90;;
38940;SDS011;43236;47.208;7.518;2022-10-26T00:18:46;37.28;;;17.17;;
38940;SDS011;43236;47.208;7.518;2022-10-26T00:21:33;45.42;;;18.65;;
38940;SDS011;43236;47.208;7.518;2022-10-26T00:24:21;41.08;;;18.17;;
38940;SDS011;43236;47.208;7.518;2022-10-26T00:27:08;37.65;;;16.65;;
38940;SDS011;43236;47.208;7.518;2022-10-26T00:29:55;38.78;;;16.70;;
38940;SDS011;43236;47.208;7.518;2022-10-26T00:32:42;40.53;;;16.75;;
38940;SDS011;43236;47.208;7.518;2022-10-26T00:35:31;38.92;;;17.30;;
38940;SDS011;43236;47.208;7.518;2022-10-26T00:38:18;44.92;;;17.38;;
38940;SDS011;43236;47.208;7.518;2022-10-26T00:41:05;40.72;;;17.98;;
38940;SDS011;43236;47.208;7.518;2022-10-26T00:43:53;40.63;;;17.50;;
38940;SDS011;43236;47.208;7.518;2022-10-26T00:46:40;39.53;;;16.48;;
38940;SDS011;43236;47.208;7.518;2022-10-26T00:49:28;42.20;;;17.52;;
38940;SDS011;43236;47.208;7.518;2022-10-26T00:52:16;39.55;;;18.02;;
38940;SDS011;43236;47.208;7.518;2022-10-26T00:55:05;44.30;;;18.17;;
38940;SDS011;43236;47.208;7.518;2022-10-26T00:57:54;38.80;;;18.38;;
38940;SDS011;43236;47.208;7.518;2022-10-26T01:00:41;40.95;;;18.20;;
38940;SDS011;43236;47.208;7.518;2022-10-26T01:03:29;33.63;;;15.70;;
38940;SDS011;43236;47.208;7.518;2022-10-26T01:06:17;40.55;;;17.30;;
38940;SDS011;43236;47.208;7.518;2022-10-26T01:09:06;34.85;;;15.60;;
38940;SDS011;43236;47.208;7.518;2022-10-26T01:11:53;34.10;;;15.85;;
38940;SDS011;43236;47.208;7.518;2022-10-26T01:14:41;36.42;;;16.67;;
38940;SDS011;43236;47.208;7.518;2022-10-26T01:17:33;32.88;;;15.38;;
38940;SDS011;43236;47.208;7.518;2022-10-26T01:20:37;34.83;;;15.60;;
38940;SDS011;43236;47.208;7.518;2022-10-26T01:23:49;35.58;;;15.70;;
38940;SDS011;43236;47.208;7.518;2022-10-26T01:27:14;39.85;;;17.25;;
38940;SDS011;43236;47.208;7.518;2022-10-26T01:30:19;40.28;;;16.15;;
38940;SDS011;43236;47.208;7.518;2022-10-26T01:33:19;35.65;;;15.80;;
38940;SDS011;43236;47.208;7.518;2022-10-26T01:36:17;32.15;;;16.23;;
38940;SDS011;43236;47.208;7.518;2022-10-26T01:39:13;35.15;;;15.25;;
38940;SDS011;43236;47.208;7.518;2022-10-26T01:42:04;34.92;;;15.63;;
38940;SDS011;43236;47.208;7.518;2022-10-26T01:44:55;41.85;;;17.35;;
38940;SDS011;43236;47.208;7.518;2022-10-26T01:47:47;38.08;;;17.13;;
38940;SDS011;43236;47.208;7.518;2022-10-26T01:50:37;38.72;;;17.55;;
38940;SDS011;43236;47.208;7.518;2022-10-26T01:53:27;44.78;;;18.45;;
38940;SDS011;43236;47.208;7.518;2022-10-26T01:56:17;40.20;;;17.02;;
38940;SDS011;43236;47.208;7.518;2022-10-26T02:02:28;33.00;;;16.42;;
38940;SDS011;43236;47.208;7.518;2022-10-26T02:05:49;35.05;;;15.85;;
38940;SDS011;43236;47.208;7.518;2022-10-26T02:08:56;31.50;;;14.48;;
38940;SDS011;43236;47.208;7.518;2022-10-26T02:11:52;29.00;;;13.77;;
38940;SDS011;43236;47.208;7.518;2022-10-26T02:14:42;25.58;;;12.80;;
38940;SDS011;43236;47.208;7.518;2022-10-26T02:17:36;23.00;;;12.50;;
38940;SDS011;43236;47.208;7.518;2022-10-26T02:20:31;25.85;;;12.50;;
38940;SDS011;43236;47.208;7.518;2022-10-26T02:23:22;24.35;;;12.13;;
38940;SDS011;43236;47.208;7.518;2022-10-26T02:26:12;26.73;;;12.73;;
38940;SDS011;43236;47.208;7.518;2022-10-26T02:29:04;30.77;;;14.35;;
38940;SDS011;43236;47.208;7.518;2022-10-26T02:31:56;30.42;;;15.02;;
38940;SDS011;43236;47.208;7.518;2022-10-26T02:34:44;34.38;;;14.02;;
38940;SDS011;43236;47.208;7.518;2022-10-26T02:37:34;35.30;;;14.90;;
38940;SDS011;43236;47.208;7.518;2022-10-26T02:40:25;31.90;;;15.50;;
38940;SDS011;43236;47.208;7.518;2022-10-26T02:43:14;36.35;;;15.90;;
38940;SDS011;43236;47.208;7.518;2022-10-26T02:46:06;37.50;;;16.73;;
38940;SDS011;43236;47.208;7.518;2022-10-26T02:48:57;30.17;;;14.98;;
38940;SDS011;43236;47.208;7.518;2022-10-26T02:51:46;35.22;;;15.48;;
38940;SDS011;43236;47.208;7.518;2022-10-26T02:54:38;35.85;;;15.48;;
38940;SDS011;43236;47.208;7.518;2022-10-26T02:57:37;39.83;;;16.67;;
38940;SDS011;43236;47.208;7.518;2022-10-26T03:00:26;32.63;;;16.05;;
38940;SDS011;43236;47.208;7.518;2022-10-26T03:03:16;37.22;;;16.20;;
38940;SDS011;43236;47.208;7.518;2022-10-26T03:06:04;33.88;;;16.65;;
38940;SDS011;43236;47.208;7.518;2022-10-26T03:08:51;36.25;;;17.25;;
38940;SDS011;43236;47.208;7.518;2022-10-26T03:11:39;34.90;;;16.00;;
38940;SDS011;43236;47.208;7.518;2022-10-26T03:14:28;37.33;;;16.55;;
38940;SDS011;43236;47.208;7.518;2022-10-26T03:17:15;37.22;;;17.13;;
38940;SDS011;43236;47.208;7.518;2022-10-26T03:20:03;41.45;;;18.10;;
38940;SDS011;43236;47.208;7.518;2022-10-26T03:22:51;42.85;;;18.20;;
38940;SDS011;43236;47.208;7.518;2022-10-26T03:25:38;42.72;;;18.73;;
38940;SDS011;43236;47.208;7.518;2022-10-26T03:28:25;37.88;;;17.42;;
38940;SDS011;43236;47.208;7.518;2022-10-26T03:31:14;38.30;;;18.08;;
38940;SDS011;43236;47.208;7.518;2022-10-26T03:34:01;40.33;;;17.45;;
38940;SDS011;43236;47.208;7.518;2022-10-26T03:36:48;55.83;;;23.65;;
38940;SDS011;43236;47.208;7.518;2022-10-26T03:39:35;53.28;;;23.73;;
38940;SDS011;43236;47.208;7.518;2022-10-26T03:42:22;41.65;;;19.40;;
38940;SDS011;43236;47.208;7.518;2022-10-26T03:45:10;39.08;;;18.20;;
38940;SDS011;43236;47.208;7.518;2022-10-26T03:47:58;41.65;;;19.08;;
38940;SDS011;43236;47.208;7.518;2022-10-26T03:50:45;44.88;;;20.02;;
38940;SDS011;43236;47.208;7.518;2022-10-26T03:53:32;51.22;;;21.08;;
38940;SDS011;43236;47.208;7.518;2022-10-26T03:56:20;43.80;;;21.30;;
38940;SDS011;43236;47.208;7.518;2022-10-26T03:59:07;41.38;;;19.20;;
38940;SDS011;43236;47.208;7.518;2022-10-26T04:01:54;47.20;;;20.90;;
38940;SDS011;43236;47.208;7.518;2022-10-26T04:04:42;42.40;;;20.42;;
38940;SDS011;43236;47.208;7.518;2022-10-26T04:07:29;52.00;;;21.23;;
38940;SDS011;43236;47.208;7.518;2022-10-26T04:10:16;43.33;;;19.88;;
38940;SDS011;43236;47.208;7.518;2022-10-26T04:13:04;43.45;;;21.33;;
38940;SDS011;43236;47.208;7.518;2022-10-26T04:15:51;50.47;;;21.25;;
38940;SDS011;43236;47.208;7.518;2022-10-26T04:18:38;44.90;;;20.95;;
38940;SDS011;43236;47.208;7.518;2022-10-26T04:21:26;44.65;;;20.10;;
38940;SDS011;43236;47.208;7.518;2022-10-26T04:24:13;43.40;;;18.88;;
38940;SDS011;43236;47.208;7.518;2022-10-26T04:27:01;46.92;;;19.42;;
38940;SDS011;43236;47.208;7.518;2022-10-26T04:29:48;41.03;;;18.42;;
38940;SDS011;43236;47.208;7.518;2022-10-26T04:32:35;37.55;;;19.25;;
38940;SDS011;43236;47.208;7.518;2022-10-26T04:35:22;39.58;;;17.17;;
38940;SDS011;43236;47.208;7.518;2022-10-26T04:38:10;33.97;;;16.70;;
38940;SDS011;43236;47.208;7.518;2022-10-26T04:40:58;39.97;;;17.40;;
38940;SDS011;43236;47.208;7.518;2022-10-26T04:43:45;37.63;;;17.48;;
38940;SDS011;43236;47.208;7.518;2022-10-26T04:46:32;41.75;;;19.48;;
38940;SDS011;43236;47.208;7.518;2022-10-26T04:49:19;49.40;;;20.15;;
38940;SDS011;43236;47.208;7.518;2022-10-26T04:52:06;44.63;;;20.55;;
38940;SDS011;43236;47.208;7.518;2022-10-26T04:54:55;46.67;;;20.80;;
38940;SDS011;43236;47.208;7.518;2022-10-26T04:57:42;48.28;;;21.27;;
38940;SDS011;43236;47.208;7.518;2022-10-26T05:00:30;50.55;;;20.83;;
38940;SDS011;43236;47.208;7.518;2022-10-26T05:03:18;45.13;;;20.50;;
38940;SDS011;43236;47.208;7.518;2022-10-26T05:06:05;48.10;;;23.10;;
38940;SDS011;43236;47.208;7.518;2022-10-26T05:08:52;45.80;;;21.27;;
38940;SDS011;43236;47.208;7.518;2022-10-26T05:11:41;53.97;;;21.70;;
38940;SDS011;43236;47.208;7.518;2022-10-26T05:14:28;45.17;;;21.27;;
38940;SDS011;43236;47.208;7.518;2022-10-26T05:17:15;53.95;;;21.92;;
38940;SDS011;43236;47.208;7.518;2022-10-26T05:20:02;45.38;;;20.85;;
38940;SDS011;43236;47.208;7.518;2022-10-26T05:22:51;43.45;;;20.27;;
38940;SDS011;43236;47.208;7.518;2022-10-26T05:25:38;42.47;;;21.27;;
38940;SDS011;43236;47.208;7.518;2022-10-26T05:28:27;50.55;;;22.17;;
38940;SDS011;43236;47.208;7.518;2022-10-26T05:31:14;50.92;;;22.60;;
38940;SDS011;43236;47.208;7.518;2022-10-26T05:34:01;45.50;;;22.02;;
38940;SDS011;43236;47.208;7.518;2022-10-26T05:36:48;49.60;;;22.95;;
38940;SDS011;43236;47.208;7.518;2022-10-26T05:39:38;53.22;;;21.88;;
38940;SDS011;43236;47.208;7.518;2022-10-26T05:42:25;54.83;;;20.55;;
38940;SDS011;43236;47.208;7.518;2022-10-26T05:45:14;47.72;;;21.05;;
38940;SDS011;43236;47.208;7.518;2022-10-26T05:48:02;45.28;;;20.73;;
38940;SDS011;43236;47.208;7.518;2022-10-26T05:50:50;43.05;;;20.98;;
38940;SDS011;43236;47.208;7.518;2022-10-26T05:53:37;54.38;;;23.02;;
38940;SDS011;43236;47.208;7.518;2022-10-26T05:56:31;41.83;;;19.35;;
38940;SDS011;43236;47.208;7.518;2022-10-26T05:59:21;40.92;;;20.10;;
38940;SDS011;43236;47.208;7.518;2022-10-26T06:02:13;41.08;;;19.23;;
38940;SDS011;43236;47.208;7.518;2022-10-26T06:05:10;47.35;;;19.75;;
38940;SDS011;43236;47.208;7.518;2022-10-26T06:08:07;43.65;;;20.50;;
38940;SDS011;43236;47.208;7.518;2022-10-26T06:10:56;54.60;;;21.35;;
38940;SDS011;43236;47.208;7.518;2022-10-26T06:13:45;54.15;;;19.23;;
38940;SDS011;43236;47.208;7.518;2022-10-26T06:16:35;55.05;;;22.50;;
38940;SDS011;43236;47.208;7.518;2022-10-26T06:19:32;38.53;;;20.58;;
38940;SDS011;43236;47.208;7.518;2022-10-26T06:22:34;46.38;;;19.45;;
38940;SDS011;43236;47.208;7.518;2022-10-26T06:25:32;44.53;;;21.08;;
38940;SDS011;43236;47.208;7.518;2022-10-26T06:28:32;46.80;;;20.45;;
38940;SDS011;43236;47.208;7.518;2022-10-26T06:31:27;50.25;;;21.17;;
38940;SDS011;43236;47.208;7.518;2022-10-26T06:34:18;48.05;;;21.02;;
38940;SDS011;43236;47.208;7.518;2022-10-26T06:37:11;47.58;;;21.25;;
38940;SDS011;43236;47.208;7.518;2022-10-26T06:39:59;48.25;;;21.13;;
38940;SDS011;43236;47.208;7.518;2022-10-26T06:42:47;50.97;;;22.42;;
38940;SDS011;43236;47.208;7.518;2022-10-26T06:45:34;55.58;;;22.17;;
38940;SDS011;43236;47.208;7.518;2022-10-26T06:48:23;50.83;;;22.55;;
38940;SDS011;43236;47.208;7.518;2022-10-26T06:51:14;44.05;;;21.52;;
38940;SDS011;43236;47.208;7.518;2022-10-26T06:54:05;45.50;;;20.95;;
38940;SDS011;43236;47.208;7.518;2022-10-26T06:57:01;42.03;;;20.60;;
38940;SDS011;43236;47.208;7.518;2022-10-26T06:59:49;44.10;;;20.25;;
38940;SDS011;43236;47.208;7.518;2022-10-26T07:02:38;42.10;;;20.65;;
38940;SDS011;43236;47.208;7.518;2022-10-26T07:05:25;39.47;;;19.52;;
38940;SDS011;43236;47.208;7.518;2022-10-26T07:08:13;40.03;;;19.90;;
38940;SDS011;43236;47.208;7.518;2022-10-26T07:11:01;42.53;;;19.77;;
38940;SDS011;43236;47.208;7.518;2022-10-26T07:13:50;36.67;;;18.95;;
38940;SDS011;43236;47.208;7.518;2022-10-26T07:16:37;42.33;;;19.73;;
38940;SDS011;43236;47.208;7.518;2022-10-26T07:19:24;35.85;;;19.05;;
38940;SDS011;43236;47.208;7.518;2022-10-26T07:22:11;39.72;;;18.63;;
38940;SDS011;43236;47.208;7.518;2022-10-26T07:24:58;33.65;;;19.27;;
38940;SDS011;43236;47.208;7.518;2022-10-26T07:27:47;34.55;;;18.35;;
38940;SDS011;43236;47.208;7.518;2022-10-26T07:30:34;39.58;;;18.85;;
38940;SDS011;43236;47.208;7.518;2022-10-26T07:33:22;32.40;;;17.83;;
38940;SDS011;43236;47.208;7.518;2022-10-26T07:36:09;37.28;;;18.90;;
38940;SDS011;43236;47.208;7.518;2022-10-26T07:38:57;37.05;;;17.67;;
38940;SDS011;43236;47.208;7.518;2022-10-26T07:41:44;33.33;;;16.83;;
38940;SDS011;43236;47.208;7.518;2022-10-26T07:44:33;37.42;;;18.35;;
38940;SDS011;43236;47.208;7.518;2022-10-26T07:47:20;37.08;;;18.17;;
38940;SDS011;43236;47.208;7.518;2022-10-26T07:50:08;30.08;;;16.80;;
38940;SDS011;43236;47.208;7.518;2022-10-26T07:52:56;34.10;;;17.35;;
38940;SDS011;43236;47.208;7.518;2022-10-26T07:55:51;35.38;;;17.83;;
38940;SDS011;43236;47.208;7.518;2022-10-26T07:58:39;36.72;;;18.15;;
38940;SDS011;43236;47.208;7.518;2022-10-26T08:01:28;41.67;;;17.42;;
38940;SDS011;43236;47.208;7.518;2022-10-26T08:04:15;36.92;;;18.83;;
38940;SDS011;43236;47.208;7.518;2022-10-26T08:07:02;35.92;;;19.00;;
38940;SDS011;43236;47.208;7.518;2022-10-26T08:09:49;36.90;;;18.60;;
38940;SDS011;43236;47.208;7.518;2022-10-26T08:12:36;39.72;;;18.48;;
38940;SDS011;43236;47.208;7.518;2022-10-26T08:15:24;31.70;;;17.85;;
38940;SDS011;43236;47.208;7.518;2022-10-26T08:18:12;32.25;;;17.40;;
38940;SDS011;43236;47.208;7.518;2022-10-26T08:21:01;36.88;;;17.17;;
38940;SDS011;43236;47.208;7.518;2022-10-26T08:23:49;30.98;;;18.10;;
38940;SDS011;43236;47.208;7.518;2022-10-26T08:26:36;34.67;;;18.52;;
38940;SDS011;43236;47.208;7.518;2022-10-26T08:29:24;40.13;;;19.83;;
38940;SDS011;43236;47.208;7.518;2022-10-26T08:32:11;39.33;;;19.48;;
38940;SDS011;43236;47.208;7.518;2022-10-26T08:35:00;35.08;;;19.27;;
38940;SDS011;43236;47.208;7.518;2022-10-26T08:37:47;34.88;;;17.65;;
38940;SDS011;43236;47.208;7.518;2022-10-26T08:40:35;34.80;;;19.25;;
38940;SDS011;43236;47.208;7.518;2022-10-26T08:43:25;36.80;;;18.45;;
38940;SDS011;43236;47.208;7.518;2022-10-26T08:46:16;36.05;;;19.02;;
38940;SDS011;43236;47.208;7.518;2022-10-26T08:49:14;38.35;;;18.33;;
38940;SDS011;43236;47.208;7.518;2022-10-26T08:52:08;36.03;;;17.77;;
38940;SDS011;43236;47.208;7.518;2022-10-26T08:54:58;33.67;;;17.75;;
38940;SDS011;43236;47.208;7.518;2022-10-26T08:57:48;34.97;;;18.63;;
38940;SDS011;43236;47.208;7.518;2022-10-26T09:00:35;39.35;;;18.98;;
38940;SDS011;43236;47.208;7.518;2022-10-26T09:03:24;33.15;;;16.75;;
38940;SDS011;43236;47.208;7.518;2022-10-26T09:06:22;38.10;;;18.70;;
38940;SDS011;43236;47.208;7.518;2022-10-26T09:09:18;45.17;;;19.00;;
38940;SDS011;43236;47.208;7.518;2022-10-26T09:12:10;39.47;;;18.20;;
38940;SDS011;43236;47.208;7.518;2022-10-26T09:15:09;33.53;;;15.95;;
38940;SDS011;43236;47.208;7.518;2022-10-26T09:18:06;38.20;;;17.88;;
38940;SDS011;43236;47.208;7.518;2022-10-26T09:21:07;34.08;;;16.63;;
38940;SDS011;43236;47.208;7.518;2022-10-26T09:24:04;38.97;;;16.90;;
38940;SDS011;43236;47.208;7.518;2022-10-26T09:26:57;30.08;;;15.80;;
38940;SDS011;43236;47.208;7.518;2022-10-26T09:29:53;30.38;;;16.35;;
38940;SDS011;43236;47.208;7.518;2022-10-26T09:32:42;31.95;;;15.95;;
38940;SDS011;43236;47.208;7.518;2022-10-26T09:35:32;30.67;;;15.40;;
38940;SDS011;43236;47.208;7.518;2022-10-26T09:38:28;30.65;;;14.55;;
38940;SDS011;43236;47.208;7.518;2022-10-26T09:41:19;29.48;;;14.38;;
38940;SDS011;43236;47.208;7.518;2022-10-26T09:44:16;33.35;;;15.45;;
38940;SDS011;43236;47.208;7.518;2022-10-26T09:47:12;26.33;;;13.88;;
38940;SDS011;43236;47.208;7.518;2022-10-26T09:50:11;28.05;;;13.40;;
38940;SDS011;43236;47.208;7.518;2022-10-26T09:53:04;26.77;;;14.48;;
38940;SDS011;43236;47.208;7.518;2022-10-26T09:55:53;35.65;;;15.60;;
38940;SDS011;43236;47.208;7.518;2022-10-26T09:58:47;29.88;;;13.38;;
38940;SDS011;43236;47.208;7.518;2022-10-26T10:01:45;25.30;;;12.68;;
38940;SDS011;43236;47.208;7.518;2022-10-26T10:04:32;23.67;;;13.18;;
38940;SDS011;43236;47.208;7.518;2022-10-26T10:07:19;23.70;;;13.27;;
38940;SDS011;43236;47.208;7.518;2022-10-26T10:10:07;24.35;;;13.38;;
38940;SDS011;43236;47.208;7.518;2022-10-26T10:13:02;27.88;;;15.20;;
38940;SDS011;43236;47.208;7.518;2022-10-26T10:16:10;31.70;;;14.48;;
38940;SDS011;43236;47.208;7.518;2022-10-26T10:19:01;22.77;;;13.45;;
38940;SDS011;43236;47.208;7.518;2022-10-26T10:21:48;26.95;;;15.02;;
38940;SDS011;43236;47.208;7.518;2022-10-26T10:24:39;28.23;;;14.20;;
38940;SDS011;43236;47.208;7.518;2022-10-26T10:27:27;30.63;;;13.82;;
38940;SDS011;43236;47.208;7.518;2022-10-26T10:30:19;31.70;;;14.80;;
38940;SDS011;43236;47.208;7.518;2022-10-26T10:33:09;24.42;;;12.95;;
38940;SDS011;43236;47.208;7.518;2022-10-26T10:35:58;28.38;;;14.10;;
38940;SDS011;43236;47.208;7.518;2022-10-26T10:38:47;25.70;;;12.20;;
38940;SDS011;43236;47.208;7.518;2022-10-26T10:41:35;26.50;;;10.95;;
38940;SDS011;43236;47.208;7.518;2022-10-26T10:44:23;22.23;;;11.68;;
38940;SDS011;43236;47.208;7.518;2022-10-26T10:47:18;23.63;;;12.18;;
38940;SDS011;43236;47.208;7.518;2022-10-26T10:50:14;25.08;;;11.52;;
38940;SDS011;43236;47.208;7.518;2022-10-26T10:53:13;21.48;;;10.50;;
38940;SDS011;43236;47.208;7.518;2022-10-26T10:56:06;23.23;;;10.10;;
38940;SDS011;43236;47.208;7.518;2022-10-26T11:02:36;20.48;;;9.70;;
38940;SDS011;43236;47.208;7.518;2022-10-26T11:08:56;22.30;;;8.73;;
38940;SDS011;43236;47.208;7.518;2022-10-26T11:11:47;21.92;;;9.48;;
38940;SDS011;43236;47.208;7.518;2022-10-26T11:14:39;24.92;;;10.15;;
38940;SDS011;43236;47.208;7.518;2022-10-26T11:17:29;21.00;;;10.77;;
38940;SDS011;43236;47.208;7.518;2022-10-26T11:20:20;25.23;;;9.77;;
38940;SDS011;43236;47.208;7.518;2022-10-26T11:23:10;19.20;;;9.15;;
38940;SDS011;43236;47.208;7.518;2022-10-26T11:26:08;19.55;;;9.15;;
38940;SDS011;43236;47.208;7.518;2022-10-26T11:29:00;20.85;;;8.73;;
38940;SDS011;43236;47.208;7.518;2022-10-26T11:31:52;19.58;;;8.35;;
38940;SDS011;43236;47.208;7.518;2022-10-26T11:34:43;22.33;;;9.45;;
38940;SDS011;43236;47.208;7.518;2022-10-26T11:37:35;21.63;;;9.07;;
38940;SDS011;43236;47.208;7.518;2022-10-26T11:40:33;18.95;;;9.27;;
38940;SDS011;43236;47.208;7.518;2022-10-26T11:43:32;26.25;;;9.95;;
38940;SDS011;43236;47.208;7.518;2022-10-26T11:46:25;23.65;;;9.68;;
38940;SDS011;43236;47.208;7.518;2022-10-26T11:49:19;24.90;;;10.18;;
38940;SDS011;43236;47.208;7.518;2022-10-26T11:52:11;21.15;;;10.52;;
38940;SDS011;43236;47.208;7.518;2022-10-26T11:55:02;22.42;;;9.85;;
38940;SDS011;43236;47.208;7.518;2022-10-26T11:57:49;21.05;;;9.52;;
38940;SDS011;43236;47.208;7.518;2022-10-26T12:00:42;21.67;;;9.85;;
38940;SDS011;43236;47.208;7.518;2022-10-26T12:03:40;18.92;;;9.68;;
38940;SDS011;43236;47.208;7.518;2022-10-26T12:06:30;25.30;;;9.48;;
38940;SDS011;43236;47.208;7.518;2022-10-26T12:09:19;24.67;;;9.35;;
38940;SDS011;43236;47.208;7.518;2022-10-26T12:12:11;17.00;;;7.80;;
38940;SDS011;43236;47.208;7.518;2022-10-26T12:15:05;16.42;;;8.10;;
38940;SDS011;43236;47.208;7.518;2022-10-26T12:18:07;20.33;;;7.85;;
38940;SDS011;43236;47.208;7.518;2022-10-26T12:20:59;17.35;;;7.13;;
38940;SDS011;43236;47.208;7.518;2022-10-26T12:23:54;22.98;;;6.90;;
38940;SDS011;43236;47.208;7.518;2022-10-26T12:26:52;14.93;;;6.93;;
38940;SDS011;43236;47.208;7.518;2022-10-26T12:29:46;21.00;;;6.93;;
38940;SDS011;43236;47.208;7.518;2022-10-26T12:35:42;16.90;;;7.03;;
38940;SDS011;43236;47.208;7.518;2022-10-26T12:41:42;16.60;;;6.00;;
38940;SDS011;43236;47.208;7.518;2022-10-26T12:48:00;16.30;;;6.90;;
38940;SDS011;43236;47.208;7.518;2022-10-26T12:50:50;17.67;;;5.82;;
38940;SDS011;43236;47.208;7.518;2022-10-26T12:53:38;15.55;;;5.40;;
38940;SDS011;43236;47.208;7.518;2022-10-26T12:56:26;16.42;;;5.30;;
38940;SDS011;43236;47.208;7.518;2022-10-26T12:59:21;17.70;;;5.25;;
38940;SDS011;43236;47.208;7.518;2022-10-26T13:02:23;16.48;;;4.65;;
38940;SDS011;43236;47.208;7.518;2022-10-26T13:05:32;16.38;;;5.07;;
38940;SDS011;43236;47.208;7.518;2022-10-26T13:08:39;16.02;;;4.97;;
38940;SDS011;43236;47.208;7.518;2022-10-26T13:11:28;10.80;;;4.85;;
38940;SDS011;43236;47.208;7.518;2022-10-26T13:14:18;15.27;;;5.20;;
38940;SDS011;43236;47.208;7.518;2022-10-26T13:17:17;15.85;;;5.15;;
38940;SDS011;43236;47.208;7.518;2022-10-26T13:20:13;17.80;;;4.90;;
38940;SDS011;43236;47.208;7.518;2022-10-26T13:23:03;18.20;;;4.88;;
38940;SDS011;43236;47.208;7.518;2022-10-26T13:26:04;15.82;;;4.65;;
38940;SDS011;43236;47.208;7.518;2022-10-26T13:28:54;12.35;;;5.28;;
38940;SDS011;43236;47.208;7.518;2022-10-26T13:31:52;12.18;;;4.85;;
38940;SDS011;43236;47.208;7.518;2022-10-26T13:34:41;13.32;;;4.68;;
38940;SDS011;43236;47.208;7.518;2022-10-26T13:37:30;16.02;;;5.18;;
38940;SDS011;43236;47.208;7.518;2022-10-26T13:40:20;16.02;;;4.32;;
38940;SDS011;43236;47.208;7.518;2022-10-26T13:43:13;18.35;;;5.05;;
38940;SDS011;43236;47.208;7.518;2022-10-26T13:46:05;20.15;;;5.65;;
38940;SDS011;43236;47.208;7.518;2022-10-26T13:48:58;11.32;;;5.13;;
38940;SDS011;43236;47.208;7.518;2022-10-26T13:51:50;14.82;;;4.40;;
38940;SDS011;43236;47.208;7.518;2022-10-26T13:54:41;15.15;;;5.07;;
38940;SDS011;43236;47.208;7.518;2022-10-26T13:57:32;15.68;;;4.63;;
38940;SDS011;43236;47.208;7.518;2022-10-26T14:00:24;18.05;;;4.53;;
38940;SDS011;43236;47.208;7.518;2022-10-26T14:03:11;10.60;;;4.25;;
38940;SDS011;43236;47.208;7.518;2022-10-26T14:06:03;14.90;;;4.28;;
38940;SDS011;43236;47.208;7.518;2022-10-26T14:08:51;15.90;;;4.20;;
38940;SDS011;43236;47.208;7.518;2022-10-26T14:11:42;11.65;;;4.47;;
38940;SDS011;43236;47.208;7.518;2022-10-26T14:14:33;14.63;;;4.72;;
38940;SDS011;43236;47.208;7.518;2022-10-26T14:17:24;15.90;;;4.72;;
38940;SDS011;43236;47.208;7.518;2022-10-26T14:20:13;13.45;;;4.35;;
38940;SDS011;43236;47.208;7.518;2022-10-26T14:23:04;15.05;;;4.60;;
38940;SDS011;43236;47.208;7.518;2022-10-26T14:26:16;16.50;;;4.57;;
38940;SDS011;43236;47.208;7.518;2022-10-26T14:29:12;17.73;;;4.53;;
38940;SDS011;43236;47.208;7.518;2022-10-26T14:32:01;19.20;;;4.65;;
38940;SDS011;43236;47.208;7.518;2022-10-26T14:35:11;19.40;;;4.55;;
38940;SDS011;43236;47.208;7.518;2022-10-26T14:37:58;18.73;;;5.00;;
38940;SDS011;43236;47.208;7.518;2022-10-26T14:40:48;13.23;;;4.88;;
38940;SDS011;43236;47.208;7.518;2022-10-26T14:43:36;17.70;;;4.53;;
38940;SDS011;43236;47.208;7.518;2022-10-26T14:46:24;12.48;;;4.10;;
38940;SDS011;43236;47.208;7.518;2022-10-26T14:49:16;19.75;;;4.97;;
38940;SDS011;43236;47.208;7.518;2022-10-26T14:52:09;26.73;;;5.07;;
38940;SDS011;43236;47.208;7.518;2022-10-26T14:55:01;16.33;;;4.90;;
38940;SDS011;43236;47.208;7.518;2022-10-26T14:58:05;19.48;;;5.20;;
38940;SDS011;43236;47.208;7.518;2022-10-26T15:07:14;17.40;;;5.63;;
38940;SDS011;43236;47.208;7.518;2022-10-26T15:10:03;13.45;;;5.10;;
38940;SDS011;43236;47.208;7.518;2022-10-26T15:12:51;18.92;;;5.10;;
38940;SDS011;43236;47.208;7.518;2022-10-26T15:15:38;16.20;;;5.45;;
38940;SDS011;43236;47.208;7.518;2022-10-26T15:18:26;16.05;;;5.25;;
38940;SDS011;43236;47.208;7.518;2022-10-26T15:21:19;15.15;;;5.25;;
38940;SDS011;43236;47.208;7.518;2022-10-26T15:24:17;16.13;;;4.75;;
38940;SDS011;43236;47.208;7.518;2022-10-26T15:27:12;22.02;;;5.00;;
38940;SDS011;43236;47.208;7.518;2022-10-26T15:30:09;14.93;;;4.85;;
38940;SDS011;43236;47.208;7.518;2022-10-26T15:33:08;16.33;;;5.68;;
38940;SDS011;43236;47.208;7.518;2022-10-26T15:36:08;18.48;;;5.57;;
38940;SDS011;43236;47.208;7.518;2022-10-26T15:38:58;17.55;;;5.47;;
38940;SDS011;43236;47.208;7.518;2022-10-26T15:41:46;14.73;;;5.40;;
38940;SDS011;43236;47.208;7.518;2022-10-26T15:44:36;22.40;;;4.88;;
38940;SDS011;43236;47.208;7.518;2022-10-26T15:47:25;15.93;;;6.75;;
38940;SDS011;43236;47.208;7.518;2022-10-26T15:50:18;24.45;;;5.78;;
38940;SDS011;43236;47.208;7.518;2022-10-26T15:53:07;20.60;;;6.32;;
38940;SDS011;43236;47.208;7.518;2022-10-26T15:56:00;17.80;;;6.63;;
38940;SDS011;43236;47.208;7.518;2022-10-26T15:58:50;21.77;;;7.93;;
38940;SDS011;43236;47.208;7.518;2022-10-26T16:01:37;18.70;;;6.55;;
38940;SDS011;43236;47.208;7.518;2022-10-26T16:04:24;21.13;;;6.22;;
38940;SDS011;43236;47.208;7.518;2022-10-26T16:07:11;17.70;;;6.88;;
38940;SDS011;43236;47.208;7.518;2022-10-26T16:09:59;18.17;;;6.82;;
38940;SDS011;43236;47.208;7.518;2022-10-26T16:12:46;20.35;;;7.03;;
38940;SDS011;43236;47.208;7.518;2022-10-26T16:15:36;20.95;;;9.05;;
38940;SDS011;43236;47.208;7.518;2022-10-26T16:18:23;20.67;;;7.22;;
38940;SDS011;43236;47.208;7.518;2022-10-26T16:21:10;19.13;;;7.47;;
38940;SDS011;43236;47.208;7.518;2022-10-26T16:23:58;17.58;;;7.10;;
38940;SDS011;43236;47.208;7.518;2022-10-26T16:26:45;16.92;;;7.63;;
38940;SDS011;43236;47.208;7.518;2022-10-26T16:29:32;18.48;;;8.15;;
38940;SDS011;43236;47.208;7.518;2022-10-26T16:32:21;19.20;;;8.77;;
38940;SDS011;43236;47.208;7.518;2022-10-26T16:35:08;24.42;;;9.50;;
38940;SDS011;43236;47.208;7.518;2022-10-26T16:37:56;18.30;;;8.43;;
38940;SDS011;43236;47.208;7.518;2022-10-26T16:40:43;22.67;;;8.55;;
38940;SDS011;43236;47.208;7.518;2022-10-26T16:43:30;31.60;;;9.48;;
38940;SDS011;43236;47.208;7.518;2022-10-26T16:46:19;21.92;;;8.93;;
38940;SDS011;43236;47.208;7.518;2022-10-26T16:49:08;24.20;;;9.95;;
38940;SDS011;43236;47.208;7.518;2022-10-26T16:51:56;25.45;;;9.63;;
38940;SDS011;43236;47.208;7.518;2022-10-26T16:54:44;20.65;;;9.43;;
38940;SDS011;43236;47.208;7.518;2022-10-26T16:57:32;18.20;;;9.02;;
38940;SDS011;43236;47.208;7.518;2022-10-26T17:00:23;26.83;;;9.32;;
38940;SDS011;43236;47.208;7.518;2022-10-26T17:03:10;23.77;;;11.38;;
38940;SDS011;43236;47.208;7.518;2022-10-26T17:05:59;25.30;;;10.38;;
38940;SDS011;43236;47.208;7.518;2022-10-26T17:08:48;21.55;;;9.88;;
38940;SDS011;43236;47.208;7.518;2022-10-26T17:11:35;19.20;;;9.32;;